createdAt,value
2018-04-10T00:00:08.918Z,21.80
2018-04-10T00:01:08.827Z,23.70
2018-04-10T00:02:08.725Z,24.60
2018-04-10T00:03:08.633Z,22.80
2018-04-10T00:04:08.779Z,24.00
2018-04-10T00:05:08.438Z,22.20
2018-04-10T00:06:08.348Z,22.90
2018-04-10T00:07:08.265Z,24.60
2018-04-10T00:08:08.153Z,22.80
2018-04-10T00:09:08.050Z,24.00
2018-04-10T00:10:07.959Z,22.30
2018-04-10T00:11:07.856Z,22.20
2018-04-10T00:12:07.764Z,21.60
2018-04-10T00:13:07.674Z,22.20
2018-04-10T00:14:07.572Z,24.00
2018-04-10T00:15:07.479Z,22.90
2018-04-10T00:16:07.376Z,23.70
2018-04-10T00:17:07.276Z,22.70
2018-04-10T00:18:07.182Z,22.00
2018-04-10T00:19:07.079Z,22.50
2018-04-10T00:20:06.988Z,23.80
2018-04-10T00:21:06.885Z,22.80
2018-04-10T00:22:06.797Z,24.30
2018-04-10T00:23:06.703Z,24.70
2018-04-10T00:24:06.899Z,24.00
2018-04-10T00:25:06.509Z,22.50
2018-04-10T00:26:06.409Z,22.60
2018-04-10T00:27:06.317Z,26.40
2018-04-10T00:28:06.211Z,23.50
2018-04-10T00:29:06.121Z,22.60
2018-04-10T00:30:06.022Z,23.90
2018-04-10T00:31:05.927Z,25.60
2018-04-10T00:32:05.823Z,25.10
2018-04-10T00:33:05.734Z,23.20
2018-04-10T00:34:05.629Z,25.00
2018-04-10T00:35:05.539Z,23.80
2018-04-10T00:36:05.435Z,24.50
2018-04-10T00:37:05.346Z,26.50
2018-04-10T00:38:05.241Z,24.70
2018-04-10T00:39:05.149Z,24.10
2018-04-10T00:40:05.046Z,27.10
2018-04-10T00:41:04.958Z,25.80
2018-04-10T00:42:04.853Z,25.80
2018-04-10T00:43:04.761Z,25.20
2018-04-10T00:44:04.658Z,25.90
2018-04-10T00:45:04.568Z,25.50
2018-04-10T00:46:04.465Z,25.90
2018-04-10T00:47:04.373Z,25.20
2018-04-10T00:48:04.271Z,24.40
2018-04-10T00:49:04.179Z,24.10
2018-04-10T00:50:04.091Z,27.40
2018-04-10T00:51:03.984Z,24.40
2018-04-10T00:52:03.881Z,26.80
2018-04-10T00:53:03.791Z,24.00
2018-04-10T00:54:03.688Z,23.40
2018-04-10T00:55:03.596Z,26.90
2018-04-10T00:56:03.494Z,30.30
2018-04-10T00:57:03.402Z,27.70
2018-04-10T00:58:03.313Z,25.00
2018-04-10T00:59:03.221Z,26.60
2018-04-10T01:00:03.106Z,27.00
2018-04-10T01:01:03.015Z,24.80
2018-04-10T01:02:02.923Z,25.20
2018-04-10T01:03:02.819Z,27.10
2018-04-10T01:04:02.718Z,28.80
2018-04-10T01:05:02.626Z,26.50
2018-04-10T01:06:02.534Z,26.50
2018-04-10T01:07:02.431Z,28.20
2018-04-10T01:08:02.329Z,27.40
2018-04-10T01:09:02.238Z,30.00
2018-04-10T01:10:02.146Z,27.60
2018-04-10T01:11:02.043Z,27.10
2018-04-10T01:12:01.940Z,30.20
2018-04-10T01:13:01.849Z,26.70
2018-04-10T01:14:01.747Z,26.30
2018-04-10T01:15:01.660Z,28.50
2018-04-10T01:16:01.552Z,28.20
2018-04-10T01:17:01.461Z,30.10
2018-04-10T01:18:01.398Z,28.70
2018-04-10T01:19:01.279Z,29.50
2018-04-10T01:20:01.163Z,30.30
2018-04-10T01:21:01.073Z,27.70
2018-04-10T01:22:00.973Z,29.30
2018-04-10T01:23:00.877Z,28.20
2018-04-10T01:24:00.775Z,31.30
2018-04-10T01:25:00.686Z,30.00
2018-04-10T01:26:00.581Z,29.40
2018-04-10T01:27:00.492Z,30.30
2018-04-10T01:28:00.386Z,30.30
2018-04-10T01:29:00.297Z,28.50
2018-04-10T01:30:00.194Z,29.70
2018-04-10T01:31:00.101Z,30.90
2018-04-10T01:32:00.000Z,28.20
2018-04-10T01:32:59.908Z,31.10
2018-04-10T01:33:59.805Z,33.00
2018-04-10T01:34:59.713Z,28.70
2018-04-10T01:35:59.610Z,29.00
2018-04-10T01:36:59.519Z,29.00
2018-04-10T01:37:59.416Z,29.60
2018-04-10T01:38:59.324Z,31.00
2018-04-10T01:39:59.221Z,29.10
2018-04-10T01:40:59.132Z,27.80
2018-04-10T01:41:59.029Z,33.20
2018-04-10T01:42:58.936Z,31.00
2018-04-10T01:43:59.135Z,32.00
2018-04-10T01:44:58.743Z,32.40
2018-04-10T01:45:58.641Z,31.30
2018-04-10T01:46:58.549Z,29.20
2018-04-10T01:47:58.445Z,30.50
2018-04-10T01:48:58.356Z,31.00
2018-04-10T01:49:58.252Z,32.10
2018-04-10T01:50:58.160Z,31.50
2018-04-10T01:51:58.057Z,29.50
2018-04-10T01:52:57.966Z,27.90
2018-04-10T01:53:57.863Z,31.30
2018-04-10T01:54:57.772Z,29.20
2018-04-10T01:55:57.668Z,28.50
2018-04-10T01:56:57.579Z,31.10
2018-04-10T01:57:57.477Z,27.70
2018-04-10T01:58:57.384Z,29.80
2018-04-10T01:59:57.281Z,30.80
2018-04-10T02:00:57.191Z,28.50
2018-04-10T02:01:57.088Z,28.60
2018-04-10T02:02:56.995Z,32.10
2018-04-10T02:03:56.892Z,29.20
2018-04-10T02:04:56.802Z,30.70
2018-04-10T02:05:56.702Z,29.50
2018-04-10T02:06:56.607Z,33.00
2018-04-10T02:07:56.504Z,32.50
2018-04-10T02:08:56.414Z,28.00
2018-04-10T02:09:56.310Z,29.00
2018-04-10T02:10:56.219Z,30.50
2018-04-10T02:11:56.116Z,35.40
2018-04-10T02:12:56.027Z,30.30
2018-04-10T02:13:55.922Z,28.40
2018-04-10T02:14:55.830Z,30.60
2018-04-10T02:15:55.727Z,30.30
2018-04-10T02:16:55.628Z,28.50
2018-04-10T02:17:55.535Z,30.60
2018-04-10T02:18:55.444Z,28.50
2018-04-10T02:19:55.339Z,29.50
2018-04-10T02:20:55.251Z,29.70
2018-04-10T02:21:55.147Z,28.10
2018-04-10T02:22:55.056Z,31.20
2018-04-10T02:23:55.791Z,28.30
2018-04-10T02:24:54.868Z,30.30
2018-04-10T02:25:54.758Z,28.70
2018-04-10T02:26:54.667Z,30.40
2018-04-10T02:27:54.564Z,29.80
2018-04-10T02:28:54.474Z,31.40
2018-04-10T02:29:54.370Z,31.80
2018-04-10T02:30:54.279Z,31.20
2018-04-10T02:31:54.177Z,29.90
2018-04-10T02:32:54.085Z,31.10
2018-04-10T02:33:53.982Z,30.70
2018-04-10T02:34:53.890Z,34.00
2018-04-10T02:35:53.789Z,30.90
2018-04-10T02:36:53.698Z,28.90
2018-04-10T02:37:53.595Z,29.80
2018-04-10T02:38:53.502Z,31.80
2018-04-10T02:39:53.399Z,34.70
2018-04-10T02:40:53.309Z,29.70
2018-04-10T02:41:53.205Z,33.30
2018-04-10T02:42:53.114Z,29.00
2018-04-10T02:43:53.010Z,31.90
2018-04-10T02:44:52.921Z,32.80
2018-04-10T02:45:52.818Z,29.80
2018-04-10T02:46:52.730Z,31.10
2018-04-10T02:47:52.623Z,29.70
2018-04-10T02:48:52.532Z,30.40
2018-04-10T02:49:52.429Z,28.20
2018-04-10T02:50:52.339Z,28.40
2018-04-10T02:51:52.234Z,31.60
2018-04-10T02:52:52.144Z,30.20
2018-04-10T02:53:52.040Z,31.20
2018-04-10T02:54:51.949Z,32.10
2018-04-10T02:55:51.846Z,31.50
2018-04-10T02:56:51.755Z,30.60
2018-04-10T02:57:51.678Z,30.20
2018-04-10T02:58:51.560Z,32.90
2018-04-10T02:59:51.459Z,29.40
2018-04-10T03:00:51.368Z,30.10
2018-04-10T03:01:51.265Z,29.50
2018-04-10T03:02:51.173Z,31.50
2018-04-10T03:03:51.070Z,32.90
2018-04-10T03:04:50.968Z,34.20
2018-04-10T03:05:50.876Z,29.30
2018-04-10T03:06:50.784Z,31.20
2018-04-10T03:07:50.681Z,31.90
2018-04-10T03:08:50.582Z,32.20
2018-04-10T03:09:50.487Z,31.50
2018-04-10T03:10:50.396Z,30.70
2018-04-10T03:11:50.293Z,30.60
2018-04-10T03:12:50.193Z,30.10
2018-04-10T03:13:50.100Z,37.40
2018-04-10T03:14:49.997Z,34.20
2018-04-10T03:15:49.906Z,30.10
2018-04-10T03:16:49.814Z,30.60
2018-04-10T03:17:49.711Z,28.50
2018-04-10T03:18:49.608Z,31.60
2018-04-10T03:19:49.517Z,28.70
2018-04-10T03:20:49.417Z,29.60
2018-04-10T03:21:49.325Z,30.00
2018-04-10T03:22:49.220Z,30.90
2018-04-10T03:23:49.128Z,31.00
2018-04-10T03:24:49.025Z,30.80
2018-04-10T03:25:48.935Z,33.20
2018-04-10T03:26:48.832Z,32.60
2018-04-10T03:27:48.741Z,29.70
2018-04-10T03:28:48.637Z,31.70
2018-04-10T03:29:48.547Z,32.00
2018-04-10T03:30:48.443Z,31.30
2018-04-10T03:31:48.351Z,31.20
2018-04-10T03:32:48.249Z,34.00
2018-04-10T03:33:48.158Z,31.10
2018-04-10T03:34:48.056Z,32.30
2018-04-10T03:35:47.963Z,30.80
2018-04-10T03:36:47.860Z,32.20
2018-04-10T03:37:47.770Z,31.50
2018-04-10T03:38:47.670Z,30.60
2018-04-10T03:39:47.564Z,29.40
2018-04-10T03:40:47.472Z,32.00
2018-04-10T03:41:47.369Z,32.90
2018-04-10T03:42:47.278Z,31.00
2018-04-10T03:43:47.175Z,30.20
2018-04-10T03:44:47.083Z,32.30
2018-04-10T03:45:46.993Z,33.20
2018-04-10T03:46:46.890Z,35.30
2018-04-10T03:47:46.787Z,34.40
2018-04-10T03:48:46.697Z,36.00
2018-04-10T03:49:46.592Z,34.70
2018-04-10T03:50:46.502Z,32.30
2018-04-10T03:51:46.398Z,33.20
2018-04-10T03:52:46.307Z,32.20
2018-04-10T03:53:46.204Z,32.90
2018-04-10T03:54:46.114Z,31.80
2018-04-10T03:55:46.036Z,31.50
2018-04-10T03:56:45.907Z,34.80
2018-04-10T03:57:45.815Z,35.70
2018-04-10T03:58:46.013Z,34.40
2018-04-10T03:59:45.623Z,32.50
2018-04-10T04:00:45.519Z,33.30
2018-04-10T04:01:45.429Z,32.60
2018-04-10T04:02:45.336Z,36.40
2018-04-10T04:03:45.233Z,35.70
2018-04-10T04:04:45.130Z,34.80
2018-04-10T04:05:45.039Z,32.80
2018-04-10T04:06:44.936Z,32.00
2018-04-10T04:07:44.834Z,32.90
2018-04-10T04:08:44.744Z,33.00
2018-04-10T04:09:44.638Z,35.90
2018-04-10T04:10:44.547Z,33.10
2018-04-10T04:11:44.446Z,33.60
2018-04-10T04:12:44.354Z,30.90
2018-04-10T04:13:44.250Z,36.30
2018-04-10T04:14:44.158Z,33.90
2018-04-10T04:15:44.055Z,34.30
2018-04-10T04:16:43.965Z,33.00
2018-04-10T04:17:43.862Z,35.20
2018-04-10T04:18:43.770Z,34.60
2018-04-10T04:19:43.668Z,34.30
2018-04-10T04:20:43.565Z,34.00
2018-04-10T04:21:43.473Z,35.00
2018-04-10T04:22:43.371Z,35.60
2018-04-10T04:23:43.280Z,34.40
2018-04-10T04:24:43.189Z,35.20
2018-04-10T04:25:43.085Z,34.20
2018-04-10T04:26:42.982Z,34.50
2018-04-10T04:27:42.879Z,33.50
2018-04-10T04:28:42.787Z,36.20
2018-04-10T04:29:42.684Z,34.30
2018-04-10T04:30:42.594Z,35.90
2018-04-10T04:31:42.490Z,33.20
2018-04-10T04:32:42.399Z,34.50
2018-04-10T04:33:42.295Z,33.30
2018-04-10T04:34:42.206Z,33.30
2018-04-10T04:35:42.102Z,34.30
2018-04-10T04:36:41.999Z,33.00
2018-04-10T04:37:41.920Z,34.20
2018-04-10T04:38:41.805Z,34.10
2018-04-10T04:39:41.713Z,38.00
2018-04-10T04:40:41.611Z,35.90
2018-04-10T04:41:41.519Z,34.70
2018-04-10T04:42:41.415Z,36.80
2018-04-10T04:43:41.326Z,33.50
2018-04-10T04:44:41.223Z,34.70
2018-04-10T04:45:41.130Z,33.70
2018-04-10T04:46:41.028Z,33.20
2018-04-10T04:47:40.937Z,34.50
2018-04-10T04:48:40.833Z,36.10
2018-04-10T04:49:40.731Z,34.40
2018-04-10T04:50:40.639Z,31.30
2018-04-10T04:51:40.537Z,35.70
2018-04-10T04:52:40.445Z,32.70
2018-04-10T04:53:40.343Z,32.10
2018-04-10T04:54:40.250Z,32.00
2018-04-10T04:55:40.147Z,32.00
2018-04-10T04:56:40.058Z,33.30
2018-04-10T04:57:39.953Z,32.70
2018-04-10T04:58:39.864Z,33.10
2018-04-10T04:59:39.775Z,32.50
2018-04-10T05:00:39.669Z,31.90
2018-04-10T05:01:39.566Z,31.40
2018-04-10T05:02:39.474Z,34.20
2018-04-10T05:03:39.371Z,31.80
2018-04-10T05:04:39.280Z,31.40
2018-04-10T05:05:39.177Z,33.60
2018-04-10T05:06:39.085Z,34.40
2018-04-10T05:07:38.982Z,32.50
2018-04-10T05:08:38.892Z,34.30
2018-04-10T05:09:38.789Z,33.70
2018-04-10T05:10:38.697Z,34.30
2018-04-10T05:11:38.595Z,31.50
2018-04-10T05:12:38.504Z,30.40
2018-04-10T05:13:38.403Z,35.30
2018-04-10T05:14:38.310Z,33.90
2018-04-10T05:15:38.206Z,32.20
2018-04-10T05:16:38.116Z,31.80
2018-04-10T05:17:38.012Z,32.60
2018-04-10T05:18:37.921Z,32.10
2018-04-10T05:19:37.818Z,32.30
2018-04-10T05:20:37.727Z,38.50
2018-04-10T05:21:37.636Z,31.80
2018-04-10T05:22:37.532Z,33.60
2018-04-10T05:23:37.442Z,32.50
2018-04-10T05:24:37.339Z,31.90
2018-04-10T05:25:37.250Z,32.60
2018-04-10T05:26:37.145Z,32.90
2018-04-10T05:27:37.054Z,31.40
2018-04-10T05:28:36.962Z,33.00
2018-04-10T05:29:36.859Z,30.50
2018-04-10T05:30:36.769Z,33.30
2018-04-10T05:31:36.666Z,32.70
2018-04-10T05:32:36.574Z,36.10
2018-04-10T05:33:36.487Z,30.60
2018-04-10T05:34:36.380Z,31.70
2018-04-10T05:35:36.302Z,33.70
2018-04-10T05:36:36.198Z,31.10
2018-04-10T05:37:36.096Z,31.50
2018-04-10T05:38:36.004Z,32.30
2018-04-10T05:39:35.901Z,30.90
2018-04-10T05:40:35.810Z,30.60
2018-04-10T05:41:35.722Z,31.50
2018-04-10T05:42:35.616Z,32.10
2018-04-10T05:43:35.527Z,33.80
2018-04-10T05:44:35.435Z,33.10
2018-04-10T05:45:35.331Z,28.60
2018-04-10T05:46:35.241Z,30.70
2018-04-10T05:47:35.151Z,30.00
2018-04-10T05:48:35.046Z,31.00
2018-04-10T05:49:34.957Z,32.40
2018-04-10T05:50:34.868Z,30.50
2018-04-10T05:51:34.761Z,33.10
2018-04-10T05:52:34.673Z,33.60
2018-04-10T05:53:34.579Z,30.10
2018-04-10T05:54:34.476Z,29.70
2018-04-10T05:55:34.387Z,31.30
2018-04-10T05:56:34.294Z,30.50
2018-04-10T05:57:34.203Z,30.50
2018-04-10T05:58:34.109Z,31.30
2018-04-10T05:59:34.010Z,31.90
2018-04-10T06:00:33.920Z,35.10
2018-04-10T06:01:33.816Z,32.10
2018-04-10T06:02:33.724Z,30.40
2018-04-10T06:03:33.885Z,31.90
2018-04-10T06:04:33.531Z,29.40
2018-04-10T06:05:33.436Z,30.40
2018-04-10T06:06:33.351Z,31.40
2018-04-10T06:07:33.273Z,32.30
2018-04-10T06:08:33.155Z,30.00
2018-04-10T06:09:33.064Z,32.60
2018-04-10T06:10:32.972Z,33.70
2018-04-10T06:11:32.882Z,31.10
2018-04-10T06:12:32.779Z,30.60
2018-04-10T06:13:32.688Z,30.70
2018-04-10T06:14:32.597Z,30.70
2018-04-10T06:15:32.507Z,29.50
2018-04-10T06:16:32.415Z,31.60
2018-04-10T06:17:32.316Z,31.20
2018-04-10T06:18:32.222Z,31.00
2018-04-10T06:19:32.132Z,38.60
2018-04-10T06:20:32.029Z,35.80
2018-04-10T06:21:31.936Z,32.10
2018-04-10T06:22:31.846Z,30.60
2018-04-10T06:23:31.755Z,34.10
2018-04-10T06:24:31.665Z,30.80
2018-04-10T06:25:31.577Z,32.70
2018-04-10T06:26:31.470Z,30.90
2018-04-10T06:27:31.384Z,32.50
2018-04-10T06:28:31.289Z,30.90
2018-04-10T06:29:31.202Z,31.40
2018-04-10T06:30:31.107Z,33.10
2018-04-10T06:31:31.004Z,33.90
2018-04-10T06:32:30.915Z,33.90
2018-04-10T06:33:30.823Z,32.80
2018-04-10T06:34:30.733Z,34.10
2018-04-10T06:35:30.640Z,29.30
2018-04-10T06:36:30.553Z,32.40
2018-04-10T06:37:30.448Z,33.60
2018-04-10T06:38:30.370Z,30.90
2018-04-10T06:39:30.267Z,31.90
2018-04-10T06:40:30.174Z,39.40
2018-04-10T06:41:30.085Z,32.00
2018-04-10T06:42:30.007Z,31.80
2018-04-10T06:43:30.154Z,33.10
2018-04-10T06:44:29.801Z,31.40
2018-04-10T06:45:29.709Z,33.40
2018-04-10T06:46:29.619Z,31.90
2018-04-10T06:47:29.527Z,33.30
2018-04-10T06:48:29.436Z,31.00
2018-04-10T06:49:29.345Z,32.80
2018-04-10T06:50:29.255Z,31.80
2018-04-10T06:51:29.163Z,33.00
2018-04-10T06:52:29.073Z,31.70
2018-04-10T06:53:28.981Z,30.80
2018-04-10T06:54:28.892Z,34.40
2018-04-10T06:55:28.791Z,34.50
2018-04-10T06:56:28.697Z,32.20
2018-04-10T06:57:28.606Z,31.00
2018-04-10T06:58:28.515Z,35.00
2018-04-10T06:59:28.425Z,35.30
2018-04-10T07:00:28.333Z,33.10
2018-04-10T07:01:28.244Z,31.70
2018-04-10T07:02:28.155Z,34.10
2018-04-10T07:03:28.062Z,31.60
2018-04-10T07:04:27.970Z,34.80
2018-04-10T07:05:27.879Z,31.40
2018-04-10T07:06:27.788Z,35.60
2018-04-10T07:07:27.699Z,30.30
2018-04-10T07:08:27.606Z,32.50
2018-04-10T07:09:27.516Z,32.00
2018-04-10T07:10:27.425Z,32.90
2018-04-10T07:11:27.336Z,31.60
2018-04-10T07:12:27.256Z,30.70
2018-04-10T07:13:27.153Z,32.70
2018-04-10T07:14:27.061Z,33.10
2018-04-10T07:15:26.972Z,32.30
2018-04-10T07:16:26.893Z,31.10
2018-04-10T07:17:26.790Z,33.00
2018-04-10T07:18:26.698Z,31.50
2018-04-10T07:19:26.609Z,34.30
2018-04-10T07:20:26.517Z,32.90
2018-04-10T07:21:26.426Z,31.20
2018-04-10T07:22:26.335Z,33.20
2018-04-10T07:23:26.243Z,34.60
2018-04-10T07:24:26.154Z,29.30
2018-04-10T07:25:26.063Z,27.00
2018-04-10T07:26:25.971Z,29.50
2018-04-10T07:27:25.881Z,32.30
2018-04-10T07:28:26.089Z,34.20
2018-04-10T07:29:25.699Z,30.00
2018-04-10T07:30:25.607Z,33.70
2018-04-10T07:31:25.518Z,29.40
2018-04-10T07:32:25.434Z,30.00
2018-04-10T07:33:25.325Z,31.30
2018-04-10T07:34:25.251Z,30.60
2018-04-10T07:35:25.142Z,32.30
2018-04-10T07:36:25.052Z,34.20
2018-04-10T07:37:24.960Z,33.00
2018-04-10T07:38:25.123Z,28.60
2018-04-10T07:39:24.778Z,33.00
2018-04-10T07:40:24.677Z,30.50
2018-04-10T07:41:24.585Z,30.20
2018-04-10T07:42:24.494Z,33.80
2018-04-10T07:43:24.404Z,30.30
2018-04-10T07:44:24.312Z,30.50
2018-04-10T07:45:24.223Z,29.00
2018-04-10T07:46:24.119Z,37.60
2018-04-10T07:47:24.040Z,33.30
2018-04-10T07:48:23.937Z,29.30
2018-04-10T07:49:23.845Z,28.10
2018-04-10T07:50:23.755Z,28.50
2018-04-10T07:51:23.701Z,38.20
2018-04-10T07:52:23.559Z,29.70
2018-04-10T07:53:23.473Z,31.60
2018-04-10T07:54:23.378Z,27.40
2018-04-10T07:55:23.276Z,32.20
2018-04-10T07:56:23.184Z,32.60
2018-04-10T07:57:23.093Z,29.00
2018-04-10T07:58:23.002Z,31.00
2018-04-10T07:59:22.911Z,35.20
2018-04-10T08:00:22.808Z,32.10
2018-04-10T08:01:22.718Z,30.20
2018-04-10T08:02:22.627Z,28.80
2018-04-10T08:03:22.549Z,29.50
2018-04-10T08:04:22.439Z,33.70
2018-04-10T08:05:22.341Z,29.50
2018-04-10T08:06:22.251Z,38.00
2018-04-10T08:07:22.161Z,30.50
2018-04-10T08:08:22.058Z,31.10
2018-04-10T08:09:21.971Z,31.70
2018-04-10T08:10:21.876Z,30.40
2018-04-10T08:11:21.786Z,33.80
2018-04-10T08:12:21.694Z,31.00
2018-04-10T08:13:21.592Z,30.90
2018-04-10T08:14:21.505Z,30.70
2018-04-10T08:15:21.409Z,27.80
2018-04-10T08:16:21.322Z,34.60
2018-04-10T08:17:21.216Z,27.90
2018-04-10T08:18:21.124Z,32.40
2018-04-10T08:19:21.034Z,27.30
2018-04-10T08:20:20.943Z,29.70
2018-04-10T08:21:20.853Z,28.60
2018-04-10T08:22:20.760Z,26.60
2018-04-10T08:23:20.657Z,30.60
2018-04-10T08:24:20.568Z,29.20
2018-04-10T08:25:20.489Z,28.30
2018-04-10T08:26:20.385Z,29.30
2018-04-10T08:27:20.282Z,27.90
2018-04-10T08:28:20.202Z,27.10
2018-04-10T08:29:20.099Z,28.70
2018-04-10T08:30:20.008Z,29.30
2018-04-10T08:31:19.918Z,27.40
2018-04-10T08:32:19.814Z,29.30
2018-04-10T08:33:19.726Z,26.70
2018-04-10T08:34:19.632Z,27.10
2018-04-10T08:35:19.555Z,25.50
2018-04-10T08:36:19.451Z,27.40
2018-04-10T08:37:19.349Z,26.50
2018-04-10T08:38:19.257Z,24.80
2018-04-10T08:39:19.171Z,27.40
2018-04-10T08:40:19.074Z,27.00
2018-04-10T08:41:18.984Z,30.80
2018-04-10T08:42:18.892Z,29.80
2018-04-10T08:43:18.789Z,29.10
2018-04-10T08:44:18.700Z,26.60
2018-04-10T08:45:18.607Z,29.80
2018-04-10T08:46:18.517Z,25.90
2018-04-10T08:47:18.426Z,27.40
2018-04-10T08:48:18.322Z,28.40
2018-04-10T08:49:18.231Z,27.80
2018-04-10T08:50:18.141Z,27.50
2018-04-10T08:51:18.050Z,32.00
2018-04-10T08:52:17.958Z,31.50
2018-04-10T08:53:17.868Z,28.20
2018-04-10T08:54:17.765Z,28.50
2018-04-10T08:55:17.673Z,31.50
2018-04-10T08:56:17.584Z,31.60
2018-04-10T08:57:17.494Z,28.80
2018-04-10T08:58:17.402Z,25.30
2018-04-10T08:59:17.311Z,27.40
2018-04-10T09:00:17.207Z,30.90
2018-04-10T09:01:17.117Z,28.10
2018-04-10T09:02:17.026Z,30.00
2018-04-10T09:03:16.936Z,29.40
2018-04-10T09:04:16.845Z,27.30
2018-04-10T09:05:16.757Z,28.60
2018-04-10T09:06:16.663Z,26.00
2018-04-10T09:07:16.572Z,25.00
2018-04-10T09:08:16.469Z,26.30
2018-04-10T09:09:16.391Z,26.40
2018-04-10T09:10:16.288Z,27.70
2018-04-10T09:11:16.198Z,28.70
2018-04-10T09:12:16.106Z,23.60
2018-04-10T09:13:16.015Z,26.80
2018-04-10T09:14:15.913Z,27.20
2018-04-10T09:15:15.821Z,26.10
2018-04-10T09:16:15.736Z,27.40
2018-04-10T09:17:15.640Z,27.30
2018-04-10T09:18:15.548Z,26.40
2018-04-10T09:19:15.460Z,26.60
2018-04-10T09:20:15.366Z,26.10
2018-04-10T09:21:15.278Z,23.90
2018-04-10T09:22:15.174Z,25.90
2018-04-10T09:23:15.081Z,24.90
2018-04-10T09:24:14.991Z,27.20
2018-04-10T09:25:14.900Z,22.80
2018-04-10T09:26:14.810Z,23.30
2018-04-10T09:27:14.718Z,25.70
2018-04-10T09:28:14.629Z,23.90
2018-04-10T09:29:14.537Z,28.50
2018-04-10T09:30:14.447Z,22.80
2018-04-10T09:31:14.343Z,27.40
2018-04-10T09:32:14.265Z,23.70
2018-04-10T09:33:14.161Z,28.00
2018-04-10T09:34:14.070Z,23.80
2018-04-10T09:35:13.980Z,28.40
2018-04-10T09:36:13.901Z,25.00
2018-04-10T09:37:13.799Z,25.60
2018-04-10T09:38:13.958Z,26.70
2018-04-10T09:39:13.618Z,25.20
2018-04-10T09:40:13.528Z,25.20
2018-04-10T09:41:13.435Z,22.70
2018-04-10T09:42:13.343Z,26.30
2018-04-10T09:43:13.254Z,25.50
2018-04-10T09:44:13.162Z,25.20
2018-04-10T09:45:13.072Z,29.60
2018-04-10T09:46:12.981Z,27.90
2018-04-10T09:47:12.891Z,25.10
2018-04-10T09:48:12.805Z,24.70
2018-04-10T09:49:12.710Z,25.10
2018-04-10T09:50:12.630Z,24.80
2018-04-10T09:51:12.565Z,25.80
2018-04-10T09:52:12.442Z,27.80
2018-04-10T09:53:12.362Z,26.60
2018-04-10T09:54:12.269Z,23.50
2018-04-10T09:55:12.177Z,26.00
2018-04-10T09:56:12.091Z,27.30
2018-04-10T09:57:11.996Z,26.50
2018-04-10T09:58:11.905Z,26.30
2018-04-10T09:59:11.814Z,23.00
2018-04-10T10:00:11.724Z,23.60
2018-04-10T10:01:11.633Z,23.50
2018-04-10T10:02:11.554Z,23.40
2018-04-10T10:03:11.464Z,24.40
2018-04-10T10:04:11.372Z,28.20
2018-04-10T10:05:11.284Z,27.40
2018-04-10T10:06:11.191Z,24.60
2018-04-10T10:07:11.103Z,25.60
2018-04-10T10:08:11.009Z,23.50
2018-04-10T10:09:10.921Z,22.30
2018-04-10T10:10:10.828Z,22.90
2018-04-10T10:11:10.738Z,26.50
2018-04-10T10:12:10.660Z,25.00
2018-04-10T10:13:10.556Z,24.30
2018-04-10T10:14:10.464Z,26.90
2018-04-10T10:15:10.375Z,25.90
2018-04-10T10:16:10.283Z,23.90
2018-04-10T10:17:10.194Z,27.40
2018-04-10T10:18:10.102Z,24.30
2018-04-10T10:19:10.012Z,29.90
2018-04-10T10:20:09.919Z,24.50
2018-04-10T10:21:09.829Z,26.40
2018-04-10T10:22:09.741Z,26.50
2018-04-10T10:23:09.650Z,32.10
2018-04-10T10:24:09.558Z,25.40
2018-04-10T10:25:09.466Z,24.20
2018-04-10T10:26:09.377Z,24.40
2018-04-10T10:27:09.284Z,24.10
2018-04-10T10:28:09.194Z,25.60
2018-04-10T10:29:09.114Z,25.40
2018-04-10T10:30:09.025Z,25.30
2018-04-10T10:31:08.922Z,23.40
2018-04-10T10:32:08.831Z,21.80
2018-04-10T10:33:08.750Z,23.60
2018-04-10T10:34:08.660Z,23.70
2018-04-10T10:35:08.569Z,22.40
2018-04-10T10:36:08.480Z,26.70
2018-04-10T10:37:08.388Z,26.70
2018-04-10T10:38:08.297Z,24.30
2018-04-10T10:39:08.218Z,24.00
2018-04-10T10:40:08.116Z,23.10
2018-04-10T10:41:08.024Z,21.40
2018-04-10T10:42:07.940Z,25.30
2018-04-10T10:43:07.843Z,25.30
2018-04-10T10:44:07.752Z,24.40
2018-04-10T10:45:07.660Z,26.20
2018-04-10T10:46:07.574Z,21.00
2018-04-10T10:47:07.522Z,25.30
2018-04-10T10:48:07.389Z,24.40
2018-04-10T10:49:07.297Z,23.40
2018-04-10T10:50:07.207Z,20.00
2018-04-10T10:51:07.116Z,21.40
2018-04-10T10:52:07.026Z,21.60
2018-04-10T10:53:06.934Z,25.00
2018-04-10T10:54:06.844Z,23.50
2018-04-10T10:55:06.753Z,25.30
2018-04-10T10:56:06.663Z,25.90
2018-04-10T10:57:06.573Z,23.20
2018-04-10T10:58:06.745Z,23.10
2018-04-10T10:59:06.390Z,20.80
2018-04-10T11:00:06.300Z,23.50
2018-04-10T11:01:06.264Z,23.00
2018-04-10T11:02:06.119Z,22.60
2018-04-10T11:03:06.028Z,19.80
2018-04-10T11:04:05.949Z,18.80
2018-04-10T11:05:05.859Z,20.40
2018-04-10T11:06:05.769Z,21.70
2018-04-10T11:07:05.677Z,21.10
2018-04-10T11:08:05.587Z,20.10
2018-04-10T11:09:05.509Z,24.30
2018-04-10T11:10:05.404Z,22.00
2018-04-10T11:11:05.314Z,20.40
2018-04-10T11:12:05.221Z,19.20
2018-04-10T11:13:05.132Z,21.70
2018-04-10T11:14:05.040Z,21.50
2018-04-10T11:15:04.952Z,19.40
2018-04-10T11:16:04.858Z,19.00
2018-04-10T11:17:04.768Z,19.50
2018-04-10T11:18:04.676Z,18.50
2018-04-10T11:19:04.587Z,22.00
2018-04-10T11:20:04.496Z,19.90
2018-04-10T11:21:04.417Z,21.00
2018-04-10T11:22:04.327Z,18.90
2018-04-10T11:23:04.249Z,21.20
2018-04-10T11:24:04.145Z,19.30
2018-04-10T11:25:04.054Z,20.90
2018-04-10T11:26:03.964Z,20.60
2018-04-10T11:27:03.876Z,22.80
2018-04-10T11:28:03.784Z,19.10
2018-04-10T11:29:03.693Z,23.30
2018-04-10T11:30:03.601Z,22.40
2018-04-10T11:31:03.513Z,21.20
2018-04-10T11:32:03.420Z,20.10
2018-04-10T11:33:03.329Z,19.50
2018-04-10T11:34:03.239Z,19.60
2018-04-10T11:35:03.148Z,21.10
2018-04-10T11:36:03.082Z,21.20
2018-04-10T11:37:02.979Z,23.60
2018-04-10T11:38:03.138Z,21.30
2018-04-10T11:39:02.798Z,22.30
2018-04-10T11:40:02.706Z,21.40
2018-04-10T11:41:02.615Z,19.90
2018-04-10T11:42:02.525Z,19.40
2018-04-10T11:43:02.435Z,19.50
2018-04-10T11:44:02.343Z,21.50
2018-04-10T11:45:02.253Z,19.80
2018-04-10T11:46:02.183Z,20.40
2018-04-10T11:47:02.072Z,20.80
2018-04-10T11:48:01.981Z,17.60
2018-04-10T11:49:01.902Z,20.10
2018-04-10T11:50:01.812Z,19.90
2018-04-10T11:51:01.720Z,21.50
2018-04-10T11:52:01.630Z,24.30
2018-04-10T11:53:01.538Z,21.80
2018-04-10T11:54:01.449Z,17.40
2018-04-10T11:55:01.356Z,18.90
2018-04-10T11:56:01.266Z,18.30
2018-04-10T11:57:01.175Z,18.70
2018-04-10T11:58:01.085Z,20.40
2018-04-10T11:59:00.993Z,22.80
2018-04-10T12:00:00.914Z,18.60
2018-04-10T12:01:00.825Z,18.80
2018-04-10T12:02:00.737Z,19.40
2018-04-10T12:03:00.643Z,21.70
2018-04-10T12:04:00.554Z,20.00
2018-04-10T12:05:00.461Z,19.10
2018-04-10T12:06:00.370Z,22.10
2018-04-10T12:07:00.279Z,19.00
2018-04-10T12:08:00.187Z,21.50
2018-04-10T12:09:00.098Z,22.30
2018-04-10T12:10:00.008Z,20.30
2018-04-10T12:10:59.927Z,18.90
2018-04-10T12:11:59.838Z,21.90
2018-04-10T12:12:59.746Z,21.20
2018-04-10T12:13:59.657Z,21.60
2018-04-10T12:14:59.564Z,21.20
2018-04-10T12:15:59.475Z,19.60
2018-04-10T12:16:59.382Z,24.70
2018-04-10T12:17:59.292Z,20.00
2018-04-10T12:18:59.200Z,20.00
2018-04-10T12:19:59.110Z,17.70
2018-04-10T12:20:59.023Z,19.90
2018-04-10T12:21:58.941Z,17.70
2018-04-10T12:22:58.854Z,21.80
2018-04-10T12:23:58.759Z,19.50
2018-04-10T12:24:58.669Z,23.20
2018-04-10T12:25:58.577Z,17.60
2018-04-10T12:26:58.487Z,20.80
2018-04-10T12:27:58.396Z,20.90
2018-04-10T12:28:58.307Z,20.90
2018-04-10T12:29:58.214Z,21.90
2018-04-10T12:30:58.124Z,21.80
2018-04-10T12:31:58.034Z,21.20
2018-04-10T12:32:57.954Z,22.30
2018-04-10T12:33:57.864Z,22.40
2018-04-10T12:34:57.773Z,20.90
2018-04-10T12:35:57.682Z,18.80
2018-04-10T12:36:57.594Z,19.50
2018-04-10T12:37:57.501Z,19.20
2018-04-10T12:38:57.410Z,21.50
2018-04-10T12:39:57.319Z,21.20
2018-04-10T12:40:57.229Z,20.20
2018-04-10T12:41:57.149Z,19.00
2018-04-10T12:42:57.059Z,16.80
2018-04-10T12:43:56.983Z,21.40
2018-04-10T12:44:56.878Z,17.50
2018-04-10T12:45:56.785Z,19.00
2018-04-10T12:46:56.698Z,17.10
2018-04-10T12:47:56.607Z,18.70
2018-04-10T12:48:56.515Z,18.60
2018-04-10T12:49:56.424Z,18.60
2018-04-10T12:50:56.343Z,20.50